createdAt,value
2018-12-08T00:00:36.603Z,3.97
2018-12-08T00:03:04.793Z,3.90
2018-12-08T00:05:33.029Z,3.63
2018-12-08T00:08:01.216Z,3.40
2018-12-08T00:10:29.422Z,4.30
2018-12-08T00:12:57.592Z,4.20
2018-12-08T00:15:25.822Z,3.63
2018-12-08T00:17:54.194Z,3.83
2018-12-08T00:20:22.531Z,3.37
2018-12-08T00:22:50.774Z,3.50
2018-12-08T00:25:18.937Z,3.53
2018-12-08T00:27:48.018Z,3.20
2018-12-08T00:30:28.013Z,3.17
2018-12-08T00:32:56.167Z,3.17
2018-12-08T00:35:24.310Z,3.60
2018-12-08T00:37:53.034Z,2.97
2018-12-08T00:40:21.248Z,3.33
2018-12-08T00:42:49.391Z,3.03
2018-12-08T00:45:17.691Z,3.70
2018-12-08T00:47:45.910Z,3.50
2018-12-08T00:50:14.128Z,3.87
2018-12-08T00:52:42.417Z,3.33
2018-12-08T00:55:10.693Z,3.17
2018-12-08T00:57:38.839Z,2.70
2018-12-08T01:00:07.118Z,2.87
2018-12-08T01:02:35.474Z,2.50
2018-12-08T01:05:03.838Z,3.13
2018-12-08T01:07:31.987Z,3.33
2018-12-08T01:10:00.222Z,3.10
2018-12-08T01:12:28.409Z,3.87
2018-12-08T01:14:56.595Z,2.50
2018-12-08T01:17:24.834Z,2.87
2018-12-08T01:19:53.095Z,2.70
2018-12-08T01:22:21.618Z,3.23
2018-12-08T01:24:49.790Z,3.37
2018-12-08T01:27:18.856Z,3.00
2018-12-08T01:29:47.083Z,2.97
2018-12-08T01:32:15.253Z,3.47
2018-12-08T01:34:43.392Z,3.30
2018-12-08T01:37:11.667Z,2.83
2018-12-08T01:39:40.536Z,3.30
2018-12-08T01:42:08.673Z,3.13
2018-12-08T01:44:36.825Z,3.33
2018-12-08T01:47:04.973Z,2.97
2018-12-08T01:49:33.116Z,2.93
2018-12-08T01:52:01.996Z,3.97
2018-12-08T01:54:30.157Z,2.60
2018-12-08T01:56:58.308Z,2.83
2018-12-08T01:59:26.502Z,2.97
2018-12-08T02:01:54.672Z,3.27
2018-12-08T02:04:22.802Z,3.07
2018-12-08T02:06:50.964Z,2.80
2018-12-08T02:09:19.118Z,3.63
2018-12-08T02:11:47.309Z,2.90
2018-12-08T02:14:15.455Z,3.00
2018-12-08T02:16:43.687Z,2.90
2018-12-08T02:19:11.992Z,3.53
2018-12-08T02:21:40.133Z,2.93
2018-12-08T02:24:08.291Z,3.07
2018-12-08T02:26:36.493Z,2.80
2018-12-08T02:29:04.655Z,2.77
2018-12-08T02:31:32.877Z,3.07
2018-12-08T02:34:01.184Z,3.50
2018-12-08T02:36:29.411Z,3.10
2018-12-08T02:38:58.463Z,3.23
2018-12-08T02:41:26.659Z,3.47
2018-12-08T02:43:54.874Z,3.30
2018-12-08T02:46:24.094Z,3.40
2018-12-08T02:48:52.285Z,3.70
2018-12-08T02:51:20.485Z,3.43
2018-12-08T02:53:48.729Z,3.30
2018-12-08T02:56:18.851Z,3.40
2018-12-08T02:58:46.989Z,3.07
2018-12-08T03:01:15.178Z,3.23
2018-12-08T03:03:43.448Z,3.13
2018-12-08T03:06:11.683Z,3.53
2018-12-08T03:08:39.846Z,3.53
2018-12-08T03:11:08.252Z,3.37
2018-12-08T03:13:36.498Z,3.43
2018-12-08T03:16:04.692Z,3.57
2018-12-08T03:18:33.508Z,3.00
2018-12-08T03:21:01.658Z,3.33
2018-12-08T03:23:30.273Z,3.70
2018-12-08T03:25:58.470Z,3.20
2018-12-08T03:28:26.747Z,2.90
2018-12-08T03:30:55.148Z,3.33
2018-12-08T03:33:23.344Z,3.07
2018-12-08T03:35:51.572Z,3.30
2018-12-08T03:38:19.822Z,3.33
2018-12-08T03:40:48.143Z,3.20
2018-12-08T03:43:16.307Z,2.97
2018-12-08T03:45:44.611Z,3.53
2018-12-08T03:48:12.831Z,3.17
2018-12-08T03:50:41.114Z,2.93
2018-12-08T03:53:09.319Z,3.87
2018-12-08T03:55:37.459Z,3.27
2018-12-08T03:58:05.821Z,3.20
2018-12-08T04:00:34.149Z,3.57
2018-12-08T04:03:02.359Z,3.30
2018-12-08T04:05:30.583Z,3.37
2018-12-08T04:07:58.879Z,3.73
2018-12-08T04:10:27.027Z,3.30
2018-12-08T04:12:55.335Z,3.50
2018-12-08T04:15:23.737Z,3.57
2018-12-08T04:17:51.895Z,3.50
2018-12-08T04:20:20.086Z,3.90
2018-12-08T04:22:48.303Z,3.40
2018-12-08T04:25:16.612Z,3.10
2018-12-08T04:27:44.776Z,2.80
2018-12-08T04:30:12.937Z,3.30
2018-12-08T04:32:41.212Z,4.20
2018-12-08T04:35:09.527Z,3.93
2018-12-08T04:37:37.791Z,3.87
2018-12-08T04:40:06.184Z,3.83
2018-12-08T04:42:34.319Z,3.80
2018-12-08T04:45:02.595Z,3.67
2018-12-08T04:47:31.459Z,3.70
2018-12-08T04:49:59.663Z,3.63
2018-12-08T04:52:28.526Z,3.40
2018-12-08T04:54:56.737Z,3.87
2018-12-08T04:57:24.949Z,3.67
2018-12-08T04:59:53.202Z,3.90
2018-12-08T05:02:21.344Z,4.20
2018-12-08T05:04:51.054Z,3.50
2018-12-08T05:07:19.294Z,3.23
2018-12-08T05:09:47.499Z,4.40
2018-12-08T05:12:15.696Z,3.40
2018-12-08T05:14:43.921Z,3.37
2018-12-08T05:17:12.125Z,3.80
2018-12-08T05:19:40.266Z,3.73
2018-12-08T05:22:08.421Z,3.67
2018-12-08T05:24:36.591Z,3.80
2018-12-08T05:27:04.736Z,3.67
2018-12-08T05:29:33.069Z,3.37
2018-12-08T05:32:02.748Z,3.40
2018-12-08T05:34:30.900Z,3.60
2018-12-08T05:36:59.061Z,3.70
2018-12-08T05:39:27.589Z,3.20
2018-12-08T05:41:55.763Z,4.07
2018-12-08T05:44:23.937Z,3.70
2018-12-08T05:46:52.330Z,4.40
2018-12-08T05:49:20.516Z,3.73
2018-12-08T05:51:48.956Z,3.93
2018-12-08T05:54:17.276Z,4.23
2018-12-08T05:56:45.606Z,5.33
2018-12-08T05:59:13.899Z,4.10
2018-12-08T06:01:42.102Z,4.10
2018-12-08T06:04:10.331Z,4.10
2018-12-08T06:06:38.468Z,4.70
2018-12-08T06:09:06.673Z,4.20
2018-12-08T06:11:34.809Z,4.17
2018-12-08T06:14:03.016Z,4.33
2018-12-08T06:16:31.250Z,5.17
2018-12-08T06:18:59.462Z,4.33
2018-12-08T06:21:36.412Z,3.73
2018-12-08T06:24:04.634Z,5.00
2018-12-08T06:26:35.985Z,4.97
2018-12-08T06:29:04.236Z,4.57
2018-12-08T06:31:32.422Z,4.60
2018-12-08T06:34:01.357Z,4.50
2018-12-08T06:36:30.365Z,4.20
2018-12-08T06:38:59.021Z,4.43
2018-12-08T06:41:27.183Z,4.87
2018-12-08T06:43:55.326Z,4.13
2018-12-08T06:46:23.538Z,5.33
2018-12-08T06:48:51.740Z,4.57
2018-12-08T06:51:19.894Z,4.87
2018-12-08T06:53:48.097Z,4.97
2018-12-08T06:56:16.277Z,4.60
2018-12-08T06:58:44.443Z,4.73
2018-12-08T07:01:12.604Z,4.07
2018-12-08T07:03:41.138Z,4.97
2018-12-08T07:06:09.348Z,5.60
2018-12-08T07:08:37.483Z,5.70
2018-12-08T07:11:05.638Z,4.87
2018-12-08T07:13:33.904Z,5.10
2018-12-08T07:16:02.234Z,4.13
2018-12-08T07:18:30.407Z,4.70
2018-12-08T07:20:58.590Z,5.67
2018-12-08T07:23:26.726Z,5.10
2018-12-08T07:25:55.605Z,4.97
2018-12-08T07:28:23.750Z,4.40
2018-12-08T07:30:51.983Z,4.93
2018-12-08T07:33:20.138Z,5.10
2018-12-08T07:35:48.294Z,5.27
2018-12-08T07:38:16.442Z,4.57
2018-12-08T07:40:44.734Z,5.07
2018-12-08T07:43:12.911Z,5.40
2018-12-08T07:45:41.137Z,4.47
2018-12-08T07:48:09.338Z,5.00
2018-12-08T07:50:37.538Z,5.17
2018-12-08T07:53:05.707Z,4.80
2018-12-08T07:55:33.858Z,4.17
2018-12-08T07:58:01.994Z,5.03
2018-12-08T08:00:30.161Z,5.07
2018-12-08T08:02:58.307Z,4.90
2018-12-08T08:05:26.456Z,4.10
2018-12-08T08:07:54.625Z,4.60
2018-12-08T08:10:22.775Z,4.83
2018-12-08T08:12:50.919Z,4.77
2018-12-08T08:15:19.075Z,4.23
2018-12-08T08:17:47.234Z,4.30
2018-12-08T08:20:15.391Z,4.47
2018-12-08T08:22:43.557Z,4.83
2018-12-08T08:25:11.785Z,4.80
2018-12-08T08:27:40.061Z,4.60
2018-12-08T08:30:09.335Z,4.90
2018-12-08T08:32:37.460Z,5.07
2018-12-08T08:35:06.279Z,4.90
2018-12-08T08:37:34.432Z,4.60
2018-12-08T08:40:03.869Z,4.30
2018-12-08T08:42:32.011Z,4.70
2018-12-08T08:45:00.169Z,4.70
2018-12-08T08:47:28.311Z,3.90
2018-12-08T08:49:56.499Z,3.27
2018-12-08T08:52:24.675Z,4.40
2018-12-08T08:54:52.817Z,4.03
2018-12-08T08:57:20.941Z,4.17
2018-12-08T08:59:49.109Z,4.27
2018-12-08T09:02:17.267Z,3.87
2018-12-08T09:04:45.411Z,3.90
2018-12-08T09:07:13.567Z,4.53
2018-12-08T09:09:41.735Z,3.20
2018-12-08T09:12:09.886Z,3.93
2018-12-08T09:14:38.061Z,4.07
2018-12-08T09:17:06.289Z,5.20
2018-12-08T09:19:34.471Z,4.57
2018-12-08T09:22:02.798Z,5.67
2018-12-08T09:24:30.937Z,4.87
2018-12-08T09:26:59.147Z,4.90
2018-12-08T09:29:27.290Z,5.23
2018-12-08T09:31:55.499Z,5.73
2018-12-08T09:34:23.675Z,4.80
2018-12-08T09:36:51.844Z,4.97
2018-12-08T09:39:19.996Z,4.60
2018-12-08T09:41:48.225Z,4.67
2018-12-08T09:44:16.385Z,6.57
2018-12-08T09:46:44.534Z,5.67
2018-12-08T09:49:12.742Z,5.07
2018-12-08T09:51:40.883Z,5.57
2018-12-08T09:54:09.085Z,5.50
2018-12-08T09:56:37.410Z,5.73
2018-12-08T09:59:05.572Z,4.87
2018-12-08T10:01:33.813Z,5.23
2018-12-08T10:04:02.010Z,5.23
2018-12-08T10:06:30.154Z,5.13
2018-12-08T10:08:58.290Z,5.20
2018-12-08T10:11:26.444Z,4.83
2018-12-08T10:13:54.607Z,5.30
2018-12-08T10:16:22.753Z,4.87
2018-12-08T10:18:51.013Z,4.20
2018-12-08T10:21:19.168Z,4.67
2018-12-08T10:23:47.314Z,5.33
2018-12-08T10:26:15.473Z,5.43
2018-12-08T10:28:43.632Z,5.20
2018-12-08T10:31:11.818Z,5.67
2018-12-08T10:33:40.045Z,4.37
2018-12-08T10:36:08.326Z,4.70
2018-12-08T10:38:36.526Z,5.87
2018-12-08T10:41:04.669Z,4.60
2018-12-08T10:43:32.878Z,5.07
2018-12-08T10:46:01.028Z,5.23
2018-12-08T10:48:29.187Z,4.70
2018-12-08T10:50:57.350Z,4.83
2018-12-08T10:53:25.475Z,4.80
2018-12-08T10:55:53.650Z,5.70
2018-12-08T10:58:21.781Z,4.67
2018-12-08T11:00:55.630Z,5.03
2018-12-08T11:03:27.149Z,4.87
2018-12-08T11:05:55.354Z,5.03
2018-12-08T11:08:23.505Z,4.97
2018-12-08T11:10:51.637Z,4.63
2018-12-08T11:13:19.772Z,5.60
2018-12-08T11:15:48.094Z,6.00
2018-12-08T11:18:16.318Z,5.90
2018-12-08T11:20:44.549Z,5.17
2018-12-08T11:23:12.882Z,4.83
2018-12-08T11:25:41.115Z,4.70
2018-12-08T11:28:09.332Z,4.60
2018-12-08T11:30:37.537Z,5.20
2018-12-08T11:33:05.783Z,4.50
2018-12-08T11:35:35.894Z,5.27
2018-12-08T11:38:04.257Z,4.50
2018-12-08T11:40:32.452Z,4.53
2018-12-08T11:43:00.609Z,4.40
2018-12-08T11:45:28.850Z,5.03
2018-12-08T11:47:57.001Z,5.73
2018-12-08T11:50:25.359Z,4.80
2018-12-08T11:52:53.509Z,4.53
2018-12-08T11:55:29.929Z,4.27
2018-12-08T11:57:51.810Z,4.90
2018-12-08T12:00:19.965Z,4.93
2018-12-08T12:02:48.811Z,5.07
2018-12-08T12:05:16.971Z,4.83
2018-12-08T12:07:45.236Z,4.63
2018-12-08T12:10:13.559Z,4.80
2018-12-08T12:12:41.711Z,4.57
2018-12-08T12:15:09.878Z,4.40
2018-12-08T12:17:38.137Z,4.17
2018-12-08T12:20:07.497Z,4.33
2018-12-08T12:22:35.746Z,4.70
2018-12-08T12:25:05.284Z,4.77
2018-12-08T12:27:33.520Z,4.67
2018-12-08T12:30:01.726Z,4.50
2018-12-08T12:32:29.928Z,4.37
2018-12-08T12:34:58.083Z,4.80
2018-12-08T12:37:26.226Z,4.90
2018-12-08T12:39:54.438Z,4.30
2018-12-08T12:42:22.643Z,4.43
2018-12-08T12:44:50.796Z,4.10
2018-12-08T12:47:18.996Z,4.70
2018-12-08T12:49:47.276Z,4.50
2018-12-08T12:52:15.484Z,4.53
2018-12-08T12:54:43.756Z,4.40
2018-12-08T12:57:11.980Z,3.87
2018-12-08T12:59:40.190Z,4.13
2018-12-08T13:02:08.490Z,4.27
2018-12-08T13:04:36.743Z,4.47
2018-12-08T13:07:04.934Z,4.90
2018-12-08T13:09:33.959Z,4.53
2018-12-08T13:12:02.514Z,4.90
2018-12-08T13:14:30.739Z,4.97
2018-12-08T13:16:58.952Z,5.20
2018-12-08T13:19:27.141Z,6.33
2018-12-08T13:21:55.324Z,4.83
2018-12-08T13:24:27.495Z,5.73
2018-12-08T13:26:55.753Z,4.63
2018-12-08T13:29:24.724Z,5.10
2018-12-08T13:31:52.898Z,4.80
2018-12-08T13:34:25.441Z,4.70
2018-12-08T13:36:53.597Z,5.47
2018-12-08T13:39:21.771Z,5.30
2018-12-08T13:41:49.932Z,4.60
2018-12-08T13:44:33.427Z,4.70
2018-12-08T13:47:01.861Z,4.70
2018-12-08T13:49:30.026Z,5.00
2018-12-08T13:51:58.741Z,5.10
2018-12-08T13:54:47.474Z,4.60
2018-12-08T13:57:15.793Z,4.57
2018-12-08T13:59:50.512Z,4.87
2018-12-08T14:02:18.715Z,4.27
2018-12-08T14:04:46.984Z,4.67
2018-12-08T14:07:15.726Z,4.63
2018-12-08T14:09:43.901Z,4.47
2018-12-08T14:12:12.062Z,4.73
2018-12-08T14:14:40.309Z,4.90
2018-12-08T14:17:08.570Z,4.43
2018-12-08T14:19:36.812Z,4.40
2018-12-08T14:22:05.084Z,4.50
2018-12-08T14:24:33.292Z,4.73
2018-12-08T14:27:01.562Z,4.30
2018-12-08T14:29:29.722Z,4.43
2018-12-08T14:31:58.223Z,4.50
2018-12-08T14:34:26.360Z,4.50
2018-12-08T14:36:54.796Z,4.40
2018-12-08T14:39:23.125Z,4.20
2018-12-08T14:41:51.258Z,4.40
2018-12-08T14:44:19.417Z,4.50
2018-12-08T14:46:47.624Z,4.83
2018-12-08T14:49:15.815Z,4.43
2018-12-08T14:51:44.019Z,4.47
2018-12-08T14:54:12.177Z,5.27
2018-12-08T14:56:40.383Z,4.43
2018-12-08T14:59:08.547Z,4.63
2018-12-08T15:01:36.719Z,4.00
2018-12-08T15:04:04.877Z,4.87
2018-12-08T15:06:33.127Z,4.53
2018-12-08T15:09:01.374Z,4.33
2018-12-08T15:11:29.531Z,4.33
2018-12-08T15:13:57.689Z,3.93
2018-12-08T15:16:25.952Z,3.60
2018-12-08T15:18:54.182Z,4.93
2018-12-08T15:21:22.324Z,4.50
2018-12-08T15:23:50.502Z,4.70
2018-12-08T15:26:18.693Z,3.43
2018-12-08T15:28:46.856Z,3.80
2018-12-08T15:31:15.016Z,4.30
2018-12-08T15:33:43.282Z,4.33
2018-12-08T15:36:11.578Z,4.67
2018-12-08T15:38:39.739Z,4.67
2018-12-08T15:41:07.956Z,4.37
2018-12-08T15:43:36.106Z,3.90
2018-12-08T15:46:05.242Z,4.13
2018-12-08T15:48:33.424Z,3.70
2018-12-08T15:51:01.660Z,3.80
2018-12-08T15:53:29.816Z,4.00
2018-12-08T15:55:57.969Z,4.43
2018-12-08T15:58:26.115Z,4.40
2018-12-08T16:00:54.263Z,4.00
2018-12-08T16:03:22.480Z,4.80
2018-12-08T16:05:50.634Z,4.23
2018-12-08T16:08:18.806Z,5.30
2018-12-08T16:10:46.969Z,3.97
2018-12-08T16:13:15.230Z,4.20
2018-12-08T16:15:43.482Z,4.07
2018-12-08T16:18:11.797Z,4.30
2018-12-08T16:20:40.134Z,4.13
2018-12-08T16:23:08.280Z,4.30
2018-12-08T16:25:36.489Z,4.23
2018-12-08T16:28:04.744Z,4.27
2018-12-08T16:30:32.903Z,3.83
2018-12-08T16:33:01.072Z,4.13
2018-12-08T16:35:29.226Z,3.97
2018-12-08T16:37:57.469Z,4.17
2018-12-08T16:40:25.662Z,4.07
2018-12-08T16:42:53.968Z,3.53
2018-12-08T16:45:22.129Z,4.40
2018-12-08T16:47:50.276Z,4.60
2018-12-08T16:50:19.026Z,4.57
2018-12-08T16:52:47.215Z,4.10
2018-12-08T16:55:15.532Z,3.70
2018-12-08T16:57:43.858Z,3.67
2018-12-08T17:00:11.998Z,3.70
2018-12-08T17:02:40.307Z,3.53
2018-12-08T17:05:08.477Z,3.43
2018-12-08T17:07:36.706Z,4.10
2018-12-08T17:10:05.965Z,3.60
2018-12-08T17:12:34.205Z,3.47
2018-12-08T17:15:02.405Z,3.60
2018-12-08T17:17:30.546Z,3.53
2018-12-08T17:19:58.922Z,3.13
2018-12-08T17:22:27.051Z,3.27
2018-12-08T17:24:55.245Z,3.60
2018-12-08T17:27:23.383Z,3.60
2018-12-08T17:29:51.524Z,3.30
2018-12-08T17:32:19.669Z,4.10
2018-12-08T17:34:47.845Z,3.40
2018-12-08T17:37:15.993Z,3.20
2018-12-08T17:39:44.208Z,3.20
2018-12-08T17:42:12.343Z,3.53
2018-12-08T17:44:40.515Z,3.67
2018-12-08T17:47:08.677Z,3.30
2018-12-08T17:49:36.859Z,4.10
2018-12-08T17:52:05.081Z,3.87
2018-12-08T17:54:33.285Z,3.83
2018-12-08T17:57:01.446Z,4.17
2018-12-08T17:59:29.579Z,3.90
2018-12-08T18:01:58.574Z,5.03
2018-12-08T18:04:26.724Z,3.97
2018-12-08T18:06:54.863Z,4.57
2018-12-08T18:09:23.017Z,4.47
2018-12-08T18:11:51.242Z,4.37
2018-12-08T18:14:19.461Z,4.17
2018-12-08T18:16:47.599Z,4.23
2018-12-08T18:19:15.757Z,4.10
2018-12-08T18:21:44.006Z,4.27
2018-12-08T18:24:12.151Z,4.60
2018-12-08T18:26:42.380Z,4.77
2018-12-08T18:29:10.745Z,4.83
2018-12-08T18:31:38.932Z,4.47
2018-12-08T18:34:07.105Z,4.57
2018-12-08T18:36:35.234Z,4.70
2018-12-08T18:39:05.440Z,4.07
2018-12-08T18:41:33.596Z,5.53
2018-12-08T18:44:01.768Z,4.90
2018-12-08T18:46:29.921Z,4.93
2018-12-08T18:48:58.068Z,5.87
2018-12-08T18:51:26.224Z,5.30
2018-12-08T18:53:54.370Z,6.00
2018-12-08T18:56:22.510Z,5.50
2018-12-08T18:58:50.685Z,6.27
2018-12-08T19:01:19.295Z,5.73
2018-12-08T19:03:47.518Z,5.10
2018-12-08T19:06:15.672Z,5.40
2018-12-08T19:08:43.818Z,6.27
2018-12-08T19:11:12.530Z,5.67
2018-12-08T19:13:40.738Z,6.50
2018-12-08T19:16:08.935Z,6.50
2018-12-08T19:18:37.105Z,5.90
2018-12-08T19:21:05.310Z,5.67
2018-12-08T19:23:34.022Z,5.93
2018-12-08T19:26:02.326Z,5.30
2018-12-08T19:28:30.486Z,5.77
2018-12-08T19:30:58.646Z,6.03
2018-12-08T19:33:26.810Z,6.20
2018-12-08T19:35:55.046Z,6.00
2018-12-08T19:38:23.201Z,6.37
2018-12-08T19:40:51.344Z,5.57
2018-12-08T19:43:21.493Z,5.90
2018-12-08T19:45:49.625Z,6.43
2018-12-08T19:48:17.833Z,5.33
2018-12-08T19:50:45.979Z,5.30
2018-12-08T19:53:14.125Z,5.13
2018-12-08T19:55:42.286Z,5.27
2018-12-08T19:58:10.452Z,5.27
2018-12-08T20:00:38.593Z,4.83
2018-12-08T20:03:06.742Z,4.43
2018-12-08T20:05:34.965Z,4.57
2018-12-08T20:08:03.198Z,5.53
2018-12-08T20:10:31.374Z,4.83
2018-12-08T20:12:59.519Z,5.53
2018-12-08T20:15:27.678Z,10.70
2018-12-08T20:17:55.836Z,4.63
2018-12-08T20:20:24.979Z,4.37
2018-12-08T20:22:53.135Z,3.87
2018-12-08T20:25:21.285Z,3.93
2018-12-08T20:27:49.923Z,3.20
2018-12-08T20:30:18.077Z,3.13
2018-12-08T20:32:46.285Z,3.33
2018-12-08T20:35:14.432Z,2.60
2018-12-08T20:37:42.572Z,2.80
2018-12-08T20:40:10.790Z,2.53
2018-12-08T20:42:39.020Z,2.13
2018-12-08T20:45:07.962Z,2.73
2018-12-08T20:47:36.195Z,2.83
2018-12-08T20:50:05.606Z,2.83
2018-12-08T20:52:33.865Z,3.23
2018-12-08T20:55:02.025Z,4.10
2018-12-08T20:57:30.223Z,3.80
2018-12-08T20:59:58.435Z,3.50
2018-12-08T21:02:26.601Z,2.90
2018-12-08T21:04:54.750Z,2.70
2018-12-08T21:07:22.888Z,2.40
2018-12-08T21:09:51.112Z,2.63
2018-12-08T21:12:19.369Z,2.80
2018-12-08T21:14:47.573Z,2.33
2018-12-08T21:17:16.628Z,2.20
2018-12-08T21:19:44.813Z,2.77
2018-12-08T21:22:12.959Z,2.73
2018-12-08T21:24:41.203Z,2.40
2018-12-08T21:27:09.425Z,2.77
2018-12-08T21:29:37.668Z,2.00
2018-12-08T21:32:06.362Z,2.50
2018-12-08T21:34:34.555Z,2.30
2018-12-08T21:37:02.698Z,2.50
2018-12-08T21:39:30.837Z,2.60
2018-12-08T21:41:59.013Z,2.50
2018-12-08T21:44:27.198Z,2.40
2018-12-08T21:46:55.431Z,2.57
2018-12-08T21:49:24.024Z,2.33
2018-12-08T21:51:52.223Z,2.80
2018-12-08T21:54:20.374Z,3.27
2018-12-08T21:56:48.523Z,3.40
2018-12-08T21:59:16.734Z,3.57
2018-12-08T22:01:45.002Z,3.40
2018-12-08T22:04:13.194Z,3.03
2018-12-08T22:06:41.344Z,3.03
2018-12-08T22:09:09.778Z,2.47
2018-12-08T22:11:37.901Z,2.90
2018-12-08T22:14:06.312Z,2.27
2018-12-08T22:16:34.533Z,2.20
2018-12-08T22:19:02.678Z,1.87
2018-12-08T22:21:30.871Z,2.03
2018-12-08T22:23:59.098Z,2.10
2018-12-08T22:26:27.346Z,1.80
2018-12-08T22:28:55.559Z,1.73
2018-12-08T22:31:23.726Z,1.70
2018-12-08T22:33:51.845Z,2.23
2018-12-08T22:36:20.035Z,1.67
2018-12-08T22:38:48.250Z,1.93
2018-12-08T22:41:16.478Z,1.90
2018-12-08T22:43:44.618Z,1.70
2018-12-08T22:46:12.754Z,2.40
2018-12-08T22:48:40.899Z,1.70
2018-12-08T22:51:09.051Z,1.90
2018-12-08T22:53:37.226Z,1.83
2018-12-08T22:56:05.410Z,1.60
2018-12-08T22:58:33.606Z,2.00
2018-12-08T23:01:01.847Z,1.90
2018-12-08T23:03:30.004Z,2.23
2018-12-08T23:05:58.158Z,2.00
2018-12-08T23:08:26.436Z,2.27
2018-12-08T23:10:55.884Z,1.90
2018-12-08T23:13:24.055Z,2.63
2018-12-08T23:15:52.251Z,2.97
2018-12-08T23:18:20.944Z,3.20
2018-12-08T23:20:49.088Z,3.20
2018-12-08T23:23:17.396Z,3.90
2018-12-08T23:25:45.626Z,4.23
2018-12-08T23:28:13.821Z,5.33
2018-12-08T23:30:41.973Z,5.27
2018-12-08T23:33:10.169Z,6.27
2018-12-08T23:35:38.361Z,6.10
2018-12-08T23:38:06.585Z,6.60
2018-12-08T23:40:34.765Z,6.50
2018-12-08T23:43:02.974Z,6.63
2018-12-08T23:45:32.289Z,6.37
2018-12-08T23:48:00.722Z,5.83
2018-12-08T23:50:28.934Z,6.30
2018-12-08T23:52:57.113Z,5.90
2018-12-08T23:55:25.324Z,5.83
2018-12-08T23:57:53.568Z,5.70
